sensor_id;sensor_type;location;lat;lon;timestamp;pressure;altitude;pressure_sealevel;temperature;humidity
26489;BME280;14169;43.684;10.484;2023-02-21T00:01:24;102471.78;;;12.43;100.00
26489;BME280;14169;43.684;10.484;2023-02-21T00:04:08;102474.41;;;12.45;100.00
26489;BME280;14169;43.684;10.484;2023-02-21T00:06:52;102467.44;;;12.44;100.00
26489;BME280;14169;43.684;10.484;2023-02-21T00:09:38;102464.78;;;12.45;100.00
26489;BME280;14169;43.684;10.484;2023-02-21T00:12:22;102461.44;;;12.37;100.00
26489;BME280;14169;43.684;10.484;2023-02-21T00:15:06;102452.72;;;12.37;100.00
26489;BME280;14169;43.684;10.484;2023-02-21T00:17:50;102454.50;;;12.33;100.00
26489;BME280;14169;43.684;10.484;2023-02-21T00:20:36;102450.25;;;12.25;100.00
26489;BME280;14169;43.684;10.484;2023-02-21T00:23:21;102445.91;;;12.22;100.00
26489;BME280;14169;43.684;10.484;2023-02-21T00:26:05;102449.38;;;12.24;100.00
26489;BME280;14169;43.684;10.484;2023-02-21T00:28:49;102459.81;;;12.24;100.00
26489;BME280;14169;43.684;10.484;2023-02-21T00:31:33;102456.38;;;12.21;100.00
26489;BME280;14169;43.684;10.484;2023-02-21T00:34:17;102443.34;;;12.18;100.00
26489;BME280;14169;43.684;10.484;2023-02-21T00:37:00;102439.03;;;12.15;100.00
26489;BME280;14169;43.684;10.484;2023-02-21T00:39:44;102442.53;;;12.13;100.00
26489;BME280;14169;43.684;10.484;2023-02-21T00:42:28;102444.28;;;12.12;100.00
26489;BME280;14169;43.684;10.484;2023-02-21T00:45:12;102448.69;;;12.09;100.00
26489;BME280;14169;43.684;10.484;2023-02-21T00:47:56;102444.41;;;12.03;100.00
26489;BME280;14169;43.684;10.484;2023-02-21T00:50:40;102446.16;;;12.00;100.00
26489;BME280;14169;43.684;10.484;2023-02-21T00:53:24;102444.47;;;11.97;100.00
26489;BME280;14169;43.684;10.484;2023-02-21T00:56:08;102448.84;;;11.91;100.00
26489;BME280;14169;43.684;10.484;2023-02-21T00:58:52;102436.63;;;11.90;100.00
26489;BME280;14169;43.684;10.484;2023-02-21T01:01:36;102441.00;;;11.88;100.00
26489;BME280;14169;43.684;10.484;2023-02-21T01:04:20;102443.63;;;11.88;100.00
26489;BME280;14169;43.684;10.484;2023-02-21T01:07:04;102443.66;;;11.86;100.00
26489;BME280;14169;43.684;10.484;2023-02-21T01:09:48;102439.34;;;11.80;100.00
26489;BME280;14169;43.684;10.484;2023-02-21T01:12:32;102437.63;;;11.81;100.00
26489;BME280;14169;43.684;10.484;2023-02-21T01:15:15;102437.56;;;11.84;100.00
26489;BME280;14169;43.684;10.484;2023-02-21T01:17:59;102430.59;;;11.86;100.00
26489;BME280;14169;43.684;10.484;2023-02-21T01:20:45;102427.09;;;11.86;100.00
26489;BME280;14169;43.684;10.484;2023-02-21T01:23:31;102419.25;;;11.89;100.00
26489;BME280;14169;43.684;10.484;2023-02-21T01:26:15;102424.44;;;11.92;100.00
26489;BME280;14169;43.684;10.484;2023-02-21T01:28:59;102419.22;;;11.95;100.00
26489;BME280;14169;43.684;10.484;2023-02-21T01:31:43;102417.47;;;11.94;100.00
26489;BME280;14169;43.684;10.484;2023-02-21T01:34:27;102420.94;;;11.97;100.00
26489;BME280;14169;43.684;10.484;2023-02-21T01:37:11;102417.41;;;12.00;100.00
26489;BME280;14169;43.684;10.484;2023-02-21T01:39:55;102409.53;;;12.04;100.00
26489;BME280;14169;43.684;10.484;2023-02-21T01:42:38;102409.50;;;12.06;100.00
26489;BME280;14169;43.684;10.484;2023-02-21T01:48:19;102409.44;;;12.12;100.00
26489;BME280;14169;43.684;10.484;2023-02-21T01:51:06;102407.69;;;12.14;100.00
26489;BME280;14169;43.684;10.484;2023-02-21T01:53:52;102406.81;;;12.15;100.00
26489;BME280;14169;43.684;10.484;2023-02-21T01:56:37;102401.63;;;12.13;100.00
26489;BME280;14169;43.684;10.484;2023-02-21T01:59:22;102396.34;;;12.16;100.00
26489;BME280;14169;43.684;10.484;2023-02-21T02:02:20;102391.09;;;12.18;100.00
26489;BME280;14169;43.684;10.484;2023-02-21T02:05:08;102398.06;;;12.19;100.00
26489;BME280;14169;43.684;10.484;2023-02-21T02:07:53;102385.81;;;12.22;100.00
26489;BME280;14169;43.684;10.484;2023-02-21T02:10:38;102385.88;;;12.19;100.00
26489;BME280;14169;43.684;10.484;2023-02-21T02:13:32;102384.97;;;12.20;100.00
26489;BME280;14169;43.684;10.484;2023-02-21T02:16:10;102391.06;;;12.21;100.00
26489;BME280;14169;43.684;10.484;2023-02-21T02:18:57;102382.31;;;12.22;100.00
26489;BME280;14169;43.684;10.484;2023-02-21T02:34:29;102368.41;;;12.23;100.00
26489;BME280;14169;43.684;10.484;2023-02-21T02:39:44;102366.66;;;12.22;100.00
26489;BME280;14169;43.684;10.484;2023-02-21T02:45:12;102358.88;;;12.19;100.00
26489;BME280;14169;43.684;10.484;2023-02-21T02:47:42;102358.88;;;12.17;100.00
26489;BME280;14169;43.684;10.484;2023-02-21T02:50:09;102364.97;;;12.18;100.00
26489;BME280;14169;43.684;10.484;2023-02-21T02:52:36;102376.34;;;12.15;100.00
26489;BME280;14169;43.684;10.484;2023-02-21T02:55:21;102366.75;;;12.14;100.00
26489;BME280;14169;43.684;10.484;2023-02-21T02:57:48;102358.97;;;12.11;100.00
26489;BME280;14169;43.684;10.484;2023-02-21T03:00:16;102366.78;;;12.10;100.00
26489;BME280;14169;43.684;10.484;2023-02-21T03:11:19;102365.34;;;11.81;100.00
26489;BME280;14169;43.684;10.484;2023-02-21T03:13:52;102361.88;;;11.79;100.00
26489;BME280;14169;43.684;10.484;2023-02-21T03:16:26;102356.66;;;11.79;100.00
26489;BME280;14169;43.684;10.484;2023-02-21T03:19:03;102361.91;;;11.78;100.00
26489;BME280;14169;43.684;10.484;2023-02-21T03:21:36;102361.94;;;11.76;100.00
26489;BME280;14169;43.684;10.484;2023-02-21T03:24:04;102350.63;;;11.76;100.00
26489;BME280;14169;43.684;10.484;2023-02-21T03:26:33;102352.38;;;11.74;100.00
26489;BME280;14169;43.684;10.484;2023-02-21T03:29:01;102351.53;;;11.75;100.00
26489;BME280;14169;43.684;10.484;2023-02-21T03:31:34;102352.38;;;11.77;100.00
26489;BME280;14169;43.684;10.484;2023-02-21T03:34:02;102348.03;;;11.74;100.00
26489;BME280;14169;43.684;10.484;2023-02-21T03:36:27;102343.63;;;11.78;100.00
26489;BME280;14169;43.684;10.484;2023-02-21T03:38:53;102344.50;;;11.78;100.00
26489;BME280;14169;43.684;10.484;2023-02-21T03:41:18;102345.44;;;11.74;100.00
26489;BME280;14169;43.684;10.484;2023-02-21T03:43:44;102353.31;;;11.71;100.00
26489;BME280;14169;43.684;10.484;2023-02-21T03:46:09;102349.00;;;11.67;100.00
26489;BME280;14169;43.684;10.484;2023-02-21T03:48:35;102346.44;;;11.63;100.00
26489;BME280;14169;43.684;10.484;2023-02-21T03:51:00;102354.31;;;11.58;100.00
26489;BME280;14169;43.684;10.484;2023-02-21T03:53:26;102347.41;;;11.53;100.00
26489;BME280;14169;43.684;10.484;2023-02-21T03:55:52;102341.31;;;11.52;100.00
26489;BME280;14169;43.684;10.484;2023-02-21T03:58:18;102339.59;;;11.51;100.00
26489;BME280;14169;43.684;10.484;2023-02-21T04:00:43;102343.06;;;11.50;100.00
26489;BME280;14169;43.684;10.484;2023-02-21T04:03:08;102341.34;;;11.49;100.00
26489;BME280;14169;43.684;10.484;2023-02-21T04:05:35;102345.66;;;11.52;100.00
26489;BME280;14169;43.684;10.484;2023-02-21T04:08:00;102341.28;;;11.55;100.00
26489;BME280;14169;43.684;10.484;2023-02-21T04:10:26;102336.94;;;11.57;100.00
26489;BME280;14169;43.684;10.484;2023-02-21T04:12:51;102345.56;;;11.61;100.00
26489;BME280;14169;43.684;10.484;2023-02-21T04:15:17;102341.19;;;11.64;100.00
26489;BME280;14169;43.684;10.484;2023-02-21T04:17:42;102342.84;;;11.70;100.00
26489;BME280;14169;43.684;10.484;2023-02-21T04:20:08;102344.56;;;11.72;100.00
26489;BME280;14169;43.684;10.484;2023-02-21T04:22:34;102336.72;;;11.74;100.00
26489;BME280;14169;43.684;10.484;2023-02-21T04:24:59;102337.63;;;11.73;100.00
26489;BME280;14169;43.684;10.484;2023-02-21T04:27:25;102330.66;;;11.73;100.00
26489;BME280;14169;43.684;10.484;2023-02-21T04:29:51;102328.91;;;11.72;100.00
26489;BME280;14169;43.684;10.484;2023-02-21T04:32:16;102332.44;;;11.68;100.00
26489;BME280;14169;43.684;10.484;2023-02-21T04:34:42;102326.41;;;11.65;100.00
26489;BME280;14169;43.684;10.484;2023-02-21T04:37:07;102322.91;;;11.67;100.00
26489;BME280;14169;43.684;10.484;2023-02-21T04:39:33;102322.88;;;11.69;100.00
26489;BME280;14169;43.684;10.484;2023-02-21T04:41:58;102319.34;;;11.73;100.00
26489;BME280;14169;43.684;10.484;2023-02-21T04:44:24;102321.91;;;11.76;100.00
26489;BME280;14169;43.684;10.484;2023-02-21T04:46:49;102315.84;;;11.74;100.00
26489;BME280;14169;43.684;10.484;2023-02-21T04:49:15;102318.44;;;11.74;100.00
26489;BME280;14169;43.684;10.484;2023-02-21T04:51:40;102316.69;;;11.77;100.00
26489;BME280;14169;43.684;10.484;2023-02-21T04:54:06;102310.50;;;11.81;100.00
26489;BME280;14169;43.684;10.484;2023-02-21T04:56:32;102307.06;;;11.79;100.00
26489;BME280;14169;43.684;10.484;2023-02-21T04:58:57;102303.59;;;11.79;100.00
26489;BME280;14169;43.684;10.484;2023-02-21T05:01:27;102304.47;;;11.78;100.00
26489;BME280;14169;43.684;10.484;2023-02-21T05:03:53;102298.34;;;11.80;100.00
26489;BME280;14169;43.684;10.484;2023-02-21T05:06:20;102301.88;;;11.76;100.00
26489;BME280;14169;43.684;10.484;2023-02-21T05:08:46;102296.75;;;11.69;100.00
26489;BME280;14169;43.684;10.484;2023-02-21T05:11:11;102292.47;;;11.63;100.00
26489;BME280;14169;43.684;10.484;2023-02-21T05:13:37;102289.91;;;11.60;100.00
26489;BME280;14169;43.684;10.484;2023-02-21T05:16:02;102287.34;;;11.57;100.00
26489;BME280;14169;43.684;10.484;2023-02-21T05:18:28;102293.44;;;11.55;100.00
26489;BME280;14169;43.684;10.484;2023-02-21T05:20:54;102279.56;;;11.51;100.00
26489;BME280;14169;43.684;10.484;2023-02-21T05:23:20;102283.94;;;11.49;100.00
26489;BME280;14169;43.684;10.484;2023-02-21T05:26:02;102276.16;;;11.42;100.00
26489;BME280;14169;43.684;10.484;2023-02-21T05:28:28;102273.63;;;11.37;100.00
26489;BME280;14169;43.684;10.484;2023-02-21T05:30:54;102270.19;;;11.32;100.00
26489;BME280;14169;43.684;10.484;2023-02-21T05:33:19;102266.72;;;11.32;100.00
26489;BME280;14169;43.684;10.484;2023-02-21T05:35:45;102268.47;;;11.31;100.00
26489;BME280;14169;43.684;10.484;2023-02-21T05:38:13;102263.25;;;11.33;100.00
26489;BME280;14169;43.684;10.484;2023-02-21T05:40:38;102261.47;;;11.35;100.00
26489;BME280;14169;43.684;10.484;2023-02-21T05:43:03;102256.22;;;11.36;100.00
26489;BME280;14169;43.684;10.484;2023-02-21T05:45:29;102256.22;;;11.39;100.00
26489;BME280;14169;43.684;10.484;2023-02-21T05:47:54;102251.81;;;11.43;100.00
26489;BME280;14169;43.684;10.484;2023-02-21T05:50:24;102253.47;;;11.51;100.00
26489;BME280;14169;43.684;10.484;2023-02-21T05:52:50;102245.53;;;11.59;100.00
26489;BME280;14169;43.684;10.484;2023-02-21T05:55:15;102256.78;;;11.64;100.00
26489;BME280;14169;43.684;10.484;2023-02-21T05:57:41;102256.78;;;11.65;100.00
26489;BME280;14169;43.684;10.484;2023-02-21T06:00:12;102251.53;;;11.67;100.00
26489;BME280;14169;43.684;10.484;2023-02-21T06:02:37;102254.09;;;11.71;100.00
26489;BME280;14169;43.684;10.484;2023-02-21T06:05:03;102246.22;;;11.74;100.00
26489;BME280;14169;43.684;10.484;2023-02-21T06:07:28;102251.34;;;11.80;100.00
26489;BME280;14169;43.684;10.484;2023-02-21T06:09:54;102247.00;;;11.79;100.00
26489;BME280;14169;43.684;10.484;2023-02-21T06:12:19;102250.44;;;11.85;100.00
26489;BME280;14169;43.684;10.484;2023-02-21T06:14:45;102250.41;;;11.86;100.00
26489;BME280;14169;43.684;10.484;2023-02-21T06:17:10;102250.41;;;11.86;100.00
26489;BME280;14169;43.684;10.484;2023-02-21T06:19:35;102253.06;;;11.83;100.00
26489;BME280;14169;43.684;10.484;2023-02-21T06:22:01;102253.97;;;11.80;100.00
26489;BME280;14169;43.684;10.484;2023-02-21T06:24:26;102253.06;;;11.81;100.00
26489;BME280;14169;43.684;10.484;2023-02-21T06:26:52;102255.69;;;11.81;100.00
26489;BME280;14169;43.684;10.484;2023-02-21T06:29:17;102262.69;;;11.81;100.00
26489;BME280;14169;43.684;10.484;2023-02-21T06:31:42;102263.53;;;11.83;100.00
26489;BME280;14169;43.684;10.484;2023-02-21T06:34:10;102269.59;;;11.83;100.00
26489;BME280;14169;43.684;10.484;2023-02-21T06:36:36;102266.06;;;11.86;100.00
26489;BME280;14169;43.684;10.484;2023-02-21T06:39:03;102270.44;;;11.86;100.00
26489;BME280;14169;43.684;10.484;2023-02-21T06:41:29;102272.13;;;11.90;100.00
26489;BME280;14169;43.684;10.484;2023-02-21T06:43:56;102275.59;;;11.93;100.00
26489;BME280;14169;43.684;10.484;2023-02-21T06:46:24;102277.31;;;11.93;100.00
26489;BME280;14169;43.684;10.484;2023-02-21T06:48:51;102275.59;;;11.93;100.00
26489;BME280;14169;43.684;10.484;2023-02-21T06:51:16;102272.09;;;11.94;100.00
26489;BME280;14169;43.684;10.484;2023-02-21T06:53:44;102278.19;;;11.95;100.00
26489;BME280;14169;43.684;10.484;2023-02-21T06:56:10;102278.16;;;11.96;100.00
26489;BME280;14169;43.684;10.484;2023-02-21T06:58:35;102282.56;;;11.90;100.00
26489;BME280;14169;43.684;10.484;2023-02-21T07:01:01;102288.72;;;11.87;100.00
26489;BME280;14169;43.684;10.484;2023-02-21T07:03:28;102290.50;;;11.82;100.00
26489;BME280;14169;43.684;10.484;2023-02-21T07:05:53;102290.56;;;11.77;100.00
26489;BME280;14169;43.684;10.484;2023-02-21T07:08:18;102292.31;;;11.77;100.00
26489;BME280;14169;43.684;10.484;2023-02-21T07:10:44;102287.09;;;11.77;100.00
26489;BME280;14169;43.684;10.484;2023-02-21T07:13:09;102283.66;;;11.72;100.00
26489;BME280;14169;43.684;10.484;2023-02-21T07:15:35;102291.56;;;11.67;100.00
26489;BME280;14169;43.684;10.484;2023-02-21T07:18:00;102291.59;;;11.64;100.00
26489;BME280;14169;43.684;10.484;2023-02-21T07:20:26;102296.81;;;11.64;100.00
26489;BME280;14169;43.684;10.484;2023-02-21T07:22:51;102288.13;;;11.62;100.00
26489;BME280;14169;43.684;10.484;2023-02-21T07:25:20;102289.88;;;11.63;100.00
26489;BME280;14169;43.684;10.484;2023-02-21T07:27:46;102291.63;;;11.63;100.00
26489;BME280;14169;43.684;10.484;2023-02-21T07:30:12;102284.63;;;11.65;100.00
26489;BME280;14169;43.684;10.484;2023-02-21T07:32:38;102288.97;;;11.67;100.00
26489;BME280;14169;43.684;10.484;2023-02-21T07:35:04;102279.31;;;11.72;100.00
26489;BME280;14169;43.684;10.484;2023-02-21T07:37:30;102285.34;;;11.77;100.00
26489;BME280;14169;43.684;10.484;2023-02-21T07:39:55;102294.00;;;11.81;100.00
26489;BME280;14169;43.684;10.484;2023-02-21T07:42:20;102287.88;;;11.85;100.00
26489;BME280;14169;43.684;10.484;2023-02-21T07:44:46;102279.97;;;11.88;100.00
26489;BME280;14169;43.684;10.484;2023-02-21T07:47:12;102285.13;;;11.96;100.00
26489;BME280;14169;43.684;10.484;2023-02-21T07:49:38;102285.94;;;12.02;100.00
26489;BME280;14169;43.684;10.484;2023-02-21T07:52:04;102282.34;;;12.11;100.00
26489;BME280;14169;43.684;10.484;2023-02-21T07:54:30;102284.06;;;12.13;100.00
26489;BME280;14169;43.684;10.484;2023-02-21T07:56:55;102287.44;;;12.18;100.00
26489;BME280;14169;43.684;10.484;2023-02-21T07:59:21;102284.88;;;12.17;100.00
26489;BME280;14169;43.684;10.484;2023-02-21T08:01:46;102282.19;;;12.20;100.00
26489;BME280;14169;43.684;10.484;2023-02-21T08:04:12;102276.09;;;12.21;100.00
26489;BME280;14169;43.684;10.484;2023-02-21T08:06:38;102278.75;;;12.19;100.00
26489;BME280;14169;43.684;10.484;2023-02-21T08:09:04;102278.69;;;12.22;100.00
26489;BME280;14169;43.684;10.484;2023-02-21T08:11:30;102272.59;;;12.22;100.00
26489;BME280;14169;43.684;10.484;2023-02-21T08:13:56;102279.50;;;12.27;100.00
26489;BME280;14169;43.684;10.484;2023-02-21T08:16:22;102277.78;;;12.25;100.00
26489;BME280;14169;43.684;10.484;2023-02-21T08:18:48;102276.00;;;12.27;100.00
26489;BME280;14169;43.684;10.484;2023-02-21T08:21:15;102273.34;;;12.30;100.00
26489;BME280;14169;43.684;10.484;2023-02-21T08:23:41;102281.13;;;12.34;100.00
26489;BME280;14169;43.684;10.484;2023-02-21T08:26:07;102279.31;;;12.39;100.00
26489;BME280;14169;43.684;10.484;2023-02-21T08:28:33;102286.22;;;12.45;100.00
26489;BME280;14169;43.684;10.484;2023-02-21T08:30:58;102286.19;;;12.46;100.00
26489;BME280;14169;43.684;10.484;2023-02-21T08:33:24;102285.31;;;12.46;100.00
26489;BME280;14169;43.684;10.484;2023-02-21T08:35:49;102281.81;;;12.47;100.00
26489;BME280;14169;43.684;10.484;2023-02-21T08:38:17;102280.94;;;12.46;100.00
26489;BME280;14169;43.684;10.484;2023-02-21T08:40:44;102287.91;;;12.46;100.00
26489;BME280;14169;43.684;10.484;2023-02-21T08:43:10;102287.81;;;12.52;100.00
26489;BME280;14169;43.684;10.484;2023-02-21T08:45:36;102296.47;;;12.57;100.00
26489;BME280;14169;43.684;10.484;2023-02-21T08:48:02;102292.06;;;12.60;100.00
26489;BME280;14169;43.684;10.484;2023-02-21T08:50:28;102293.78;;;12.63;100.00
26489;BME280;14169;43.684;10.484;2023-02-21T08:52:54;102303.28;;;12.67;100.00
26489;BME280;14169;43.684;10.484;2023-02-21T08:55:20;102293.69;;;12.69;100.00
26489;BME280;14169;43.684;10.484;2023-02-21T08:57:50;102299.78;;;12.68;100.00
26489;BME280;14169;43.684;10.484;2023-02-21T09:00:17;102298.03;;;12.69;100.00
26489;BME280;14169;43.684;10.484;2023-02-21T09:02:43;102301.53;;;12.69;100.00
26489;BME280;14169;43.684;10.484;2023-02-21T09:05:15;102298.00;;;12.70;100.00
26489;BME280;14169;43.684;10.484;2023-02-21T09:07:41;102300.59;;;12.72;100.00
26489;BME280;14169;43.684;10.484;2023-02-21T09:10:07;102291.91;;;12.70;100.00
26489;BME280;14169;43.684;10.484;2023-02-21T09:12:35;102295.38;;;12.70;100.00
26489;BME280;14169;43.684;10.484;2023-02-21T09:15:01;102298.91;;;12.69;100.00
26489;BME280;14169;43.684;10.484;2023-02-21T09:17:27;102294.50;;;12.70;100.00
26489;BME280;14169;43.684;10.484;2023-02-21T09:19:52;102303.22;;;12.70;100.00
26489;BME280;14169;43.684;10.484;2023-02-21T09:22:17;102294.56;;;12.68;100.00
26489;BME280;14169;43.684;10.484;2023-02-21T09:24:43;102301.53;;;12.69;100.00
26489;BME280;14169;43.684;10.484;2023-02-21T09:27:08;102300.59;;;12.72;100.00
26489;BME280;14169;43.684;10.484;2023-02-21T09:29:35;102304.97;;;12.71;100.00
26489;BME280;14169;43.684;10.484;2023-02-21T09:32:01;102300.59;;;12.72;100.00
26489;BME280;14169;43.684;10.484;2023-02-21T09:34:27;102305.81;;;12.73;100.00
26489;BME280;14169;43.684;10.484;2023-02-21T09:36:53;102310.94;;;12.78;100.00
26489;BME280;14169;43.684;10.484;2023-02-21T09:39:22;102311.81;;;12.78;100.00
26489;BME280;14169;43.684;10.484;2023-02-21T09:41:48;102307.44;;;12.80;100.00
26489;BME280;14169;43.684;10.484;2023-02-21T09:44:20;102314.38;;;12.83;100.00
26489;BME280;14169;43.684;10.484;2023-02-21T09:46:53;102322.13;;;12.89;100.00
26489;BME280;14169;43.684;10.484;2023-02-21T09:49:25;102318.59;;;12.90;100.00
26489;BME280;14169;43.684;10.484;2023-02-21T09:51:54;102323.84;;;12.91;100.00
26489;BME280;14169;43.684;10.484;2023-02-21T09:54:36;102328.13;;;12.94;100.00
26489;BME280;14169;43.684;10.484;2023-02-21T09:57:05;102324.63;;;12.95;100.00
26489;BME280;14169;43.684;10.484;2023-02-21T09:59:35;102328.97;;;12.96;100.00
26489;BME280;14169;43.684;10.484;2023-02-21T10:05:06;102343.72;;;13.01;100.00
26489;BME280;14169;43.684;10.484;2023-02-21T10:10:49;102344.63;;;12.99;100.00
26489;BME280;14169;43.684;10.484;2023-02-21T10:13:38;102349.84;;;13.00;100.00
26489;BME280;14169;43.684;10.484;2023-02-21T10:16:36;102343.69;;;13.03;100.00
26489;BME280;14169;43.684;10.484;2023-02-21T10:21:35;102337.59;;;13.02;100.00
26489;BME280;14169;43.684;10.484;2023-02-21T10:24:11;102337.59;;;13.02;100.00
26489;BME280;14169;43.684;10.484;2023-02-21T10:26:39;102341.09;;;13.01;100.00
26489;BME280;14169;43.684;10.484;2023-02-21T10:29:19;102334.19;;;12.97;100.00
26489;BME280;14169;43.684;10.484;2023-02-21T10:31:45;102330.69;;;12.98;100.00
26489;BME280;14169;43.684;10.484;2023-02-21T10:34:24;102323.78;;;12.94;100.00
26489;BME280;14169;43.684;10.484;2023-02-21T10:36:52;102328.06;;;12.98;100.00
26489;BME280;14169;43.684;10.484;2023-02-21T10:39:23;102325.41;;;13.01;100.00
26489;BME280;14169;43.684;10.484;2023-02-21T10:41:55;102319.28;;;13.02;100.00
26489;BME280;14169;43.684;10.484;2023-02-21T10:44:26;102323.56;;;13.06;100.00
26489;BME280;14169;43.684;10.484;2023-02-21T10:47:00;102320.13;;;13.04;100.00
26489;BME280;14169;43.684;10.484;2023-02-21T10:49:35;102314.00;;;13.05;100.00
26489;BME280;14169;43.684;10.484;2023-02-21T10:54:30;102319.16;;;13.08;100.00
26489;BME280;14169;43.684;10.484;2023-02-21T10:56:56;102315.59;;;13.14;100.00
26489;BME280;14169;43.684;10.484;2023-02-21T10:59:26;102316.44;;;13.14;100.00
26489;BME280;14169;43.684;10.484;2023-02-21T11:01:53;102312.09;;;13.15;100.00
26489;BME280;14169;43.684;10.484;2023-02-21T11:06:47;102300.69;;;13.17;100.00
26489;BME280;14169;43.684;10.484;2023-02-21T11:14:33;102300.41;;;13.34;100.00
26489;BME280;14169;43.684;10.484;2023-02-21T11:17:12;102286.34;;;13.39;100.00
26489;BME280;14169;43.684;10.484;2023-02-21T11:22:14;102283.53;;;13.50;100.00
26489;BME280;14169;43.684;10.484;2023-02-21T11:25:05;102283.50;;;13.52;100.00
26489;BME280;14169;43.684;10.484;2023-02-21T11:27:33;102289.44;;;13.61;100.00
26489;BME280;14169;43.684;10.484;2023-02-21T11:30:02;102277.16;;;13.65;100.00
26489;BME280;14169;43.684;10.484;2023-02-21T11:32:34;102280.56;;;13.68;100.00
26489;BME280;14169;43.684;10.484;2023-02-21T11:35:23;102281.44;;;13.69;100.00
26489;BME280;14169;43.684;10.484;2023-02-21T11:37:58;102274.28;;;13.75;100.00
26489;BME280;14169;43.684;10.484;2023-02-21T11:40:31;102270.84;;;13.75;100.00
26489;BME280;14169;43.684;10.484;2023-02-21T11:43:27;102265.66;;;13.72;100.00
26489;BME280;14169;43.684;10.484;2023-02-21T11:48:41;102259.41;;;13.77;100.00
26489;BME280;14169;43.684;10.484;2023-02-21T11:54:00;102248.84;;;13.82;100.00
26489;BME280;14169;43.684;10.484;2023-02-21T12:07:17;102238.56;;;13.73;100.00
26489;BME280;14169;43.684;10.484;2023-02-21T12:10:49;102243.59;;;13.82;100.00
26489;BME280;14169;43.684;10.484;2023-02-21T12:12:51;102233.91;;;13.85;100.00
26489;BME280;14169;43.684;10.484;2023-02-21T12:15:38;102234.88;;;13.83;100.00
26489;BME280;14169;43.684;10.484;2023-02-21T12:50:49;102165.81;;;13.85;100.00
26489;BME280;14169;43.684;10.484;2023-02-21T12:53:30;102165.94;;;13.81;100.00
26489;BME280;14169;43.684;10.484;2023-02-21T12:56:02;102156.28;;;13.83;100.00
26489;BME280;14169;43.684;10.484;2023-02-21T12:58:35;102165.94;;;13.79;100.00
26489;BME280;14169;43.684;10.484;2023-02-21T13:04:05;102157.25;;;13.79;100.00
26489;BME280;14169;43.684;10.484;2023-02-21T13:06:54;102151.03;;;13.83;100.00
26489;BME280;14169;43.684;10.484;2023-02-21T13:09:33;102143.03;;;13.89;100.00
26489;BME280;14169;43.684;10.484;2023-02-21T13:17:51;102141.34;;;13.86;100.00
26489;BME280;14169;43.684;10.484;2023-02-21T13:20:21;102134.31;;;13.88;100.00
26489;BME280;14169;43.684;10.484;2023-02-21T13:22:48;102136.84;;;13.91;100.00
26489;BME280;14169;43.684;10.484;2023-02-21T13:30:50;102133.31;;;13.94;100.00
26489;BME280;14169;43.684;10.484;2023-02-21T13:33:43;102131.56;;;13.94;100.00
26489;BME280;14169;43.684;10.484;2023-02-21T13:42:16;102133.31;;;13.94;100.00
26489;BME280;14169;43.684;10.484;2023-02-21T13:44:53;102130.69;;;13.94;100.00
26489;BME280;14169;43.684;10.484;2023-02-21T13:47:21;102125.38;;;13.97;100.00
26489;BME280;14169;43.684;10.484;2023-02-21T13:49:56;102122.78;;;13.95;100.00
26489;BME280;14169;43.684;10.484;2023-02-21T13:52:27;102120.19;;;13.94;100.00
26489;BME280;14169;43.684;10.484;2023-02-21T13:57:41;102111.47;;;13.93;100.00
26489;BME280;14169;43.684;10.484;2023-02-21T14:10:49;102103.75;;;13.87;100.00
26489;BME280;14169;43.684;10.484;2023-02-21T14:13:20;102094.19;;;13.86;100.00
26489;BME280;14169;43.684;10.484;2023-02-21T14:15:49;102092.50;;;13.84;100.00
26489;BME280;14169;43.684;10.484;2023-02-21T14:18:23;102088.22;;;13.80;100.00
26489;BME280;14169;43.684;10.484;2023-02-21T14:20:52;102086.63;;;13.74;100.00
26489;BME280;14169;43.684;10.484;2023-02-21T14:23:22;102080.66;;;13.69;100.00
26489;BME280;14169;43.684;10.484;2023-02-21T14:26:00;102082.44;;;13.66;100.00
26489;BME280;14169;43.684;10.484;2023-02-21T14:28:48;102081.63;;;13.64;100.00
26489;BME280;14169;43.684;10.484;2023-02-21T14:31:48;102076.38;;;13.64;100.00
26489;BME280;14169;43.684;10.484;2023-02-21T14:34:41;102076.44;;;13.62;100.00
26489;BME280;14169;43.684;10.484;2023-02-21T14:40:08;102067.66;;;13.65;100.00
26489;BME280;14169;43.684;10.484;2023-02-21T14:52:01;102067.78;;;13.59;100.00
26489;BME280;14169;43.684;10.484;2023-02-21T15:02:57;102059.97;;;13.57;100.00
26489;BME280;14169;43.684;10.484;2023-02-21T15:05:41;102063.44;;;13.59;100.00
26489;BME280;14169;43.684;10.484;2023-02-21T15:08:19;102052.94;;;13.59;100.00
26489;BME280;14169;43.684;10.484;2023-02-21T15:10:47;102052.03;;;13.60;100.00
26489;BME280;14169;43.684;10.484;2023-02-21T15:16:04;102048.53;;;13.60;100.00
26489;BME280;14169;43.684;10.484;2023-02-21T15:21:20;102039.81;;;13.61;100.00
26489;BME280;14169;43.684;10.484;2023-02-21T15:23:47;102043.31;;;13.61;100.00
26489;BME280;14169;43.684;10.484;2023-02-21T15:26:26;102037.19;;;13.61;100.00
26489;BME280;14169;43.684;10.484;2023-02-21T15:29:08;102034.63;;;13.59;100.00
26489;BME280;14169;43.684;10.484;2023-02-21T15:31:40;102031.91;;;13.62;100.00
26489;BME280;14169;43.684;10.484;2023-02-21T15:34:20;102033.81;;;13.56;100.00